Phillipstown, Illinois
Current Conditions -  °F | °C
As of 6:15 PM on Saturday 25 Oct 2014 (Local Time) from KCUL Reporting Station
Clear Clear  
Wind Chill: 71°   Ceiling: Unl
Heat Index: 71°   Visibility: 10mi
Dew Point: 55°   Wind: 3mph
Humidity: 58%   Direction: 280°W
Pressure: 29.99"   Gusts: NA
Location:  38.1681°N, 88.0517°W
Report Text: KCUL 252315Z AUTO 28003KT 10SM CLR 22/13 A2999 RMK AO2 T02150128
Loading
Personal Weather Stations






























Interactive Weather Map New forecast layout! Learn more

10-Day Weather Forecast

Advertisements
Track Severe Weather on mobile